TOS weather

Tromsø Airport
Tromsø, Troms, Norway

Public forecast

Using degrees Celsius for public forecast. Weather courtesy of forecast.io.

METAR (pilot weather report)

Retrieved 2019/05/24 00:20 UTC (26 minutes ago):

ENTC 240020Z 03010KT CAVOK 03/M01 Q1015 RMK WIND 2600FT 09006KT

TAF (pilot weather forecast)

Forecast is more than 12 hours old.

Retrieved 2019/05/23 00:57 UTC (24 hours ago):

TAF ENTC 232300Z 2400/2424 03015KT CAVOK TEMPO 2400/2409 VRB05KT